Time;durP1;ratioP1;P1;durP2;ratioP2;P2;SDS_P1;SDS_P2;PMS_P1;PMS_P2;Temp;Humidity;BMP_temperature;BMP_pressure;BME280_temperature;BME280_humidity;BME280_pressure;Samples;Min_cycle;Max_cycle;Signal;HPM_P1;HPM_P2
2023/03/02 00:01:01;;;;;;;1.35;1.00;;;;;;;21.30;32.96;102394.56;4965288;28;20508;-77
2023/03/02 00:03:29;;;;;;;1.55;1.00;;;;;;;21.31;32.80;102388.06;4962756;28;20050;-74
2023/03/02 00:05:57;;;;;;;1.48;1.10;;;;;;;21.32;32.71;102398.00;4971348;28;20129;-74
2023/03/02 00:08:25;;;;;;;1.55;1.10;;;;;;;21.30;32.77;102397.28;4970697;28;20045;-74
2023/03/02 00:10:53;;;;;;;1.88;1.20;;;;;;;21.32;32.76;102398.00;4962996;28;20051;-74
2023/03/02 00:13:20;;;;;;;1.90;1.40;;;;;;;21.33;32.83;102395.13;4964145;28;20046;-76
2023/03/02 00:15:46;;;;;;;1.42;1.00;;;;;;;21.32;32.77;102398.88;4961430;28;20058;-76
2023/03/02 00:18:13;;;;;;;1.95;1.27;;;;;;;21.32;32.94;102392.53;4971171;28;20077;-76
2023/03/02 00:20:40;;;;;;;1.00;0.90;;;;;;;21.33;32.47;102392.41;4971197;28;20485;-76
2023/03/02 00:23:07;;;;;;;1.10;0.90;;;;;;;21.33;32.77;102386.94;4969016;28;20047;-76
2023/03/02 00:25:35;;;;;;;1.60;1.15;;;;;;;21.37;32.81;102390.25;4973369;28;20054;-76
2023/03/02 00:28:02;;;;;;;1.65;1.00;;;;;;;21.35;32.39;102379.47;4980591;28;20446;-76
2023/03/02 00:30:28;;;;;;;1.33;1.00;;;;;;;21.33;32.56;102384.19;4969145;28;20632;-76
2023/03/02 00:32:57;;;;;;;1.00;0.90;;;;;;;21.34;32.20;102379.59;4969648;28;20047;-76
2023/03/02 00:35:27;;;;;;;1.60;1.10;;;;;;;21.32;32.54;102385.22;4970198;28;20110;-75
2023/03/02 00:37:54;;;;;;;1.30;1.10;;;;;;;21.32;32.48;102387.06;4970510;28;20121;-75
2023/03/02 00:40:20;;;;;;;1.42;1.00;;;;;;;21.31;32.33;102382.63;4968766;28;20061;-76
2023/03/02 00:42:47;;;;;;;1.60;0.93;;;;;;;21.28;32.61;102381.03;4990697;28;20048;-76
2023/03/02 00:45:14;;;;;;;1.80;0.93;;;;;;;21.25;32.59;102384.03;5019572;28;20153;-76
2023/03/02 00:47:40;;;;;;;1.20;0.98;;;;;;;21.24;32.56;102376.84;4981225;28;20387;-76
2023/03/02 00:50:08;;;;;;;1.50;1.13;;;;;;;21.24;32.51;102374.13;5016730;28;20105;-76
2023/03/02 00:52:35;;;;;;;1.85;0.93;;;;;;;21.23;32.01;102372.41;4968744;28;20097;-76
2023/03/02 00:55:02;;;;;;;2.00;1.10;;;;;;;21.22;32.54;102370.63;4969842;28;20046;-75
2023/03/02 00:57:29;;;;;;;1.17;0.95;;;;;;;21.21;32.50;102375.22;4968761;28;20051;-75
2023/03/02 00:59:55;;;;;;;1.75;1.10;;;;;;;21.23;32.23;102373.25;4957323;28;20051;-75
2023/03/02 01:02:26;;;;;;;1.30;1.05;;;;;;;21.23;32.24;102378.72;4974986;28;20129;-75
2023/03/02 01:04:53;;;;;;;1.20;0.85;;;;;;;21.23;32.31;102373.25;5043790;28;20413;-76
2023/03/02 01:07:20;;;;;;;1.13;0.98;;;;;;;21.24;31.90;102374.13;4969532;28;20389;-76
2023/03/02 01:09:50;;;;;;;1.45;0.90;;;;;;;21.20;32.32;102370.78;4968948;28;20050;-75
2023/03/02 01:12:17;;;;;;;1.67;1.05;;;;;;;21.20;31.90;102368.03;4957318;28;20054;-75
2023/03/02 01:14:47;;;;;;;1.40;0.90;;;;;;;21.19;32.08;102369.03;4969713;28;20566;-75
2023/03/02 01:17:14;;;;;;;1.45;1.10;;;;;;;21.19;32.40;102376.38;4958131;28;20057;-75
2023/03/02 01:19:41;;;;;;;1.55;1.10;;;;;;;21.20;32.08;102370.78;4970276;28;20085;-75
2023/03/02 01:22:08;;;;;;;2.17;1.20;;;;;;;21.19;31.75;102368.19;4968559;28;20051;-73
2023/03/02 01:24:35;;;;;;;1.38;1.08;;;;;;;21.20;32.04;102375.38;4969601;28;20043;-74
2023/03/02 01:27:02;;;;;;;1.20;1.00;;;;;;;21.21;31.84;102382.56;4983103;28;20075;-74
2023/03/02 01:29:29;;;;;;;1.15;0.80;;;;;;;21.19;31.77;102377.25;5011764;28;20670;-74
2023/03/02 01:31:55;;;;;;;1.13;0.93;;;;;;;21.21;32.08;102374.38;4967601;28;20050;-74
2023/03/02 01:34:22;;;;;;;0.82;0.80;;;;;;;21.21;31.71;102371.63;4957115;28;20489;-74
2023/03/02 01:36:49;;;;;;;1.60;1.30;;;;;;;21.21;31.67;102364.31;4969283;28;20130;-78
2023/03/02 01:39:16;;;;;;;1.88;1.10;;;;;;;21.20;32.00;102368.03;4970183;28;20081;-77
2023/03/02 01:41:44;;;;;;;1.05;0.90;;;;;;;21.19;32.02;102366.31;4968538;28;20058;-77
2023/03/02 01:44:36;;;;;;;1.55;1.20;;;;;;;21.17;32.08;102362.88;4967933;28;20105;-77
2023/03/02 01:47:21;;;;;;;1.33;0.90;;;;;;;21.16;31.58;102361.13;4970919;28;20068;-77
2023/03/02 01:50:03;;;;;;;1.90;1.20;;;;;;;21.15;31.82;102362.13;4969609;28;20135;-77
2023/03/02 01:52:37;;;;;;;1.48;1.00;;;;;;;21.12;32.04;102356.09;5048312;28;20491;-77
2023/03/02 01:55:09;;;;;;;1.38;1.10;;;;;;;21.14;31.59;102357.69;4971391;28;20484;-76
2023/03/02 01:57:42;;;;;;;1.60;1.10;;;;;;;21.13;31.86;102358.69;4952005;28;20078;-76
2023/03/02 02:00:18;;;;;;;1.58;1.00;;;;;;;21.13;31.81;102357.81;4969781;28;20053;-76
2023/03/02 02:02:45;;;;;;;1.20;0.88;;;;;;;21.10;31.76;102353.50;4968034;28;20097;-78
2023/03/02 02:05:18;;;;;;;1.38;1.00;;;;;;;21.11;31.65;102352.50;4969132;28;20058;-77
2023/03/02 02:07:46;;;;;;;2.05;1.00;;;;;;;21.11;31.75;102352.50;4968029;28;20054;-77
2023/03/02 02:10:13;;;;;;;1.25;1.15;;;;;;;21.09;31.55;102348.19;4968284;28;20046;-77
2023/03/02 02:12:40;;;;;;;1.20;1.00;;;;;;;21.03;31.95;102348.75;4968150;28;20509;-77
2023/03/02 02:15:07;;;;;;;1.10;0.90;;;;;;;21.07;31.70;102350.19;4971005;28;20163;-77
2023/03/02 02:17:34;;;;;;;1.40;1.10;;;;;;;21.09;31.64;102342.72;4984284;28;20083;-77
2023/03/02 02:20:18;;;;;;;1.42;1.10;;;;;;;21.03;31.95;102338.69;5012215;28;20140;-78
2023/03/02 02:22:57;;;;;;;1.50;1.30;;;;;;;21.00;31.73;102336.22;5025013;28;20832;-77
2023/03/02 02:25:51;;;;;;;1.90;1.05;;;;;;;21.02;31.85;102338.81;5007897;28;20035;-76
2023/03/02 02:28:26;;;;;;;2.13;1.17;;;;;;;21.01;31.55;102331.63;4966830;28;20046;-76
2023/03/02 02:31:14;;;;;;;1.90;1.15;;;;;;;20.99;31.60;102337.22;4982537;28;20044;-76
2023/03/02 02:33:45;;;;;;;1.33;1.10;;;;;;;20.96;31.38;102325.72;5008469;28;20043;-76
2023/03/02 02:36:18;;;;;;;1.30;1.15;;;;;;;20.92;32.03;102328.75;5001323;28;20052;-76
2023/03/02 02:38:49;;;;;;;2.28;1.20;;;;;;;20.93;31.78;102322.28;5002635;28;20054;-74
2023/03/02 02:41:28;;;;;;;1.30;1.10;;;;;;;20.93;31.42;102324.16;4951208;28;20061;-74
2023/03/02 02:43:55;;;;;;;1.40;1.20;;;;;;;20.92;31.64;102319.69;4966733;28;20074;-73
2023/03/02 02:46:23;;;;;;;1.77;1.35;;;;;;;20.90;31.87;102325.28;4967130;28;20181;-73
2023/03/02 02:48:51;;;;;;;1.52;1.20;;;;;;;20.91;31.63;102327.00;4961327;28;20425;-73
2023/03/02 02:51:22;;;;;;;1.75;1.40;;;;;;;20.92;31.69;102327.88;4967646;28;20130;-73
2023/03/02 02:53:57;;;;;;;1.23;1.13;;;;;;;20.85;31.58;102327.56;4964913;28;20039;-73
2023/03/02 02:56:30;;;;;;;1.27;1.05;;;;;;;20.83;31.96;102328.72;5023041;28;20053;-73
2023/03/02 02:59:05;;;;;;;2.15;1.10;;;;;;;20.84;32.02;102317.66;4955808;28;20070;-74
2023/03/02 03:01:33;;;;;;;1.73;1.30;;;;;;;20.81;31.49;102317.94;4968746;28;20100;-75
2023/03/02 03:04:04;;;;;;;2.05;1.52;;;;;;;20.76;31.69;102320.19;4959934;28;20041;-75
2023/03/02 03:06:37;;;;;;;2.25;1.65;;;;;;;20.79;31.92;102322.63;5022944;28;20078;-75
2023/03/02 03:09:06;;;;;;;1.80;1.40;;;;;;;20.82;31.86;102308.75;4969350;28;20130;-75
2023/03/02 03:11:42;;;;;;;1.42;1.30;;;;;;;20.83;31.75;102312.34;4970457;28;20410;-75
2023/03/02 03:14:12;;;;;;;2.08;1.60;;;;;;;20.85;31.71;102313.91;4969955;28;20497;-75
2023/03/02 03:16:44;;;;;;;1.40;1.10;;;;;;;20.85;31.76;102319.38;4967346;28;20047;-75
2023/03/02 03:19:45;;;;;;;1.75;1.33;;;;;;;20.81;31.93;102314.34;4964467;28;20061;-75
2023/03/02 03:22:14;;;;;;;2.05;1.60;;;;;;;20.82;31.49;102313.34;4984658;28;20067;-75
2023/03/02 03:24:44;;;;;;;1.52;1.10;;;;;;;20.85;31.50;102313.06;4969914;28;20065;-75
2023/03/02 03:27:14;;;;;;;1.50;1.00;;;;;;;20.83;31.59;102310.47;4970389;28;20477;-75
2023/03/02 03:29:45;;;;;;;1.40;1.30;;;;;;;20.80;31.66;102305.25;5009838;28;20149;-75
2023/03/02 03:32:13;;;;;;;1.83;1.35;;;;;;;20.71;31.74;102306.09;4994991;28;20509;-80
2023/03/02 03:34:40;;;;;;;1.50;1.30;;;;;;;20.76;31.39;102309.28;4970251;28;20049;-79
2023/03/02 03:37:18;;;;;;;1.75;1.55;;;;;;;20.83;31.59;102305.00;4970436;28;20054;-79
2023/03/02 03:39:46;;;;;;;1.60;1.40;;;;;;;20.83;31.29;102304.16;4971684;28;20042;-76
2023/03/02 03:42:14;;;;;;;1.48;1.27;;;;;;;20.82;31.28;102303.28;4960711;28;20432;-76
2023/03/02 03:44:41;;;;;;;2.20;1.50;;;;;;;20.70;31.50;102306.22;4970881;28;20093;-76
2023/03/02 03:47:08;;;;;;;1.77;1.60;;;;;;;20.68;31.39;102309.09;4970097;28;20074;-76
2023/03/02 03:49:35;;;;;;;1.63;1.20;;;;;;;20.60;31.35;102301.63;4970502;28;20390;-76
2023/03/02 03:52:03;;;;;;;1.65;1.30;;;;;;;20.64;31.71;102302.19;4970224;28;20065;-73
2023/03/02 03:54:30;;;;;;;1.83;1.35;;;;;;;20.66;31.65;102313.84;4969516;28;20049;-75
2023/03/02 03:56:58;;;;;;;1.35;1.15;;;;;;;20.66;31.48;102304.78;4969834;28;20039;-76
2023/03/02 03:59:25;;;;;;;1.67;1.52;;;;;;;20.67;31.27;102307.38;4970234;28;20049;-76
2023/03/02 04:02:00;;;;;;;2.03;1.35;;;;;;;20.66;31.35;102302.06;4969910;28;20839;-76
2023/03/02 04:04:34;;;;;;;1.80;1.40;;;;;;;20.64;31.27;102302.19;4969353;28;20058;-76
2023/03/02 04:07:06;;;;;;;;;;;;;;;20.68;31.53;102308.25;4972226;28;20057;-76
2023/03/02 04:09:36;;;;;;;1.52;1.20;;;;;;;20.56;31.56;102305.63;4964690;28;19983;-76
2023/03/02 04:12:06;;;;;;;1.70;1.40;;;;;;;20.62;31.56;102301.47;4971257;28;20453;-77
2023/03/02 04:14:34;;;;;;;1.55;1.40;;;;;;;20.62;31.56;102305.06;4968822;28;20092;-77
2023/03/02 04:17:04;;;;;;;1.80;1.45;;;;;;;20.66;31.48;102302.06;4969747;28;20047;-77
2023/03/02 04:19:32;;;;;;;1.90;1.33;;;;;;;20.58;31.32;102303.63;4969932;28;20051;-77
2023/03/02 04:22:00;;;;;;;1.92;1.30;;;;;;;20.55;31.37;102314.81;4961253;28;20049;-77
2023/03/02 04:24:27;;;;;;;1.65;1.50;;;;;;;20.60;31.30;102309.81;4972128;28;20104;-77
2023/03/02 04:26:57;;;;;;;2.15;1.63;;;;;;;20.57;31.55;102318.25;4997545;28;20055;-77
2023/03/02 04:29:25;;;;;;;2.65;1.30;;;;;;;20.53;31.39;102308.63;4994541;28;20043;-77
2023/03/02 04:31:52;;;;;;;1.83;1.52;;;;;;;20.60;31.37;102311.66;4969137;28;20047;-77
2023/03/02 04:34:20;;;;;;;1.80;1.40;;;;;;;20.61;31.24;102310.66;4964808;28;20126;-77
2023/03/02 04:36:47;;;;;;;3.88;1.85;;;;;;;20.53;31.25;102311.34;4960992;28;20051;-77
2023/03/02 04:39:16;;;;;;;2.53;1.70;;;;;;;20.52;31.65;102306.03;4969689;28;20092;-76
2023/03/02 04:41:47;;;;;;;1.92;1.73;;;;;;;20.55;31.37;102311.22;4970897;28;20046;-75
2023/03/02 04:44:15;;;;;;;1.50;1.20;;;;;;;20.54;31.43;102312.22;4969690;28;20050;-76
2023/03/02 04:46:42;;;;;;;1.70;1.30;;;;;;;20.50;31.42;102317.09;4958638;28;20513;-77
2023/03/02 04:49:11;;;;;;;1.73;1.38;;;;;;;20.52;31.58;102320.53;4970906;28;20096;-78
2023/03/02 04:51:41;;;;;;;1.52;1.30;;;;;;;20.62;31.31;102312.38;4970060;28;20046;-77
2023/03/02 04:54:14;;;;;;;2.60;1.88;;;;;;;20.68;31.16;102317.28;4981944;28;20050;-78
2023/03/02 04:56:41;;;;;;;1.85;1.52;;;;;;;20.61;31.01;102317.00;4977525;28;20081;-78
2023/03/02 04:59:08;;;;;;;1.88;1.48;;;;;;;20.57;31.27;102314.69;5039371;28;20042;-77
2023/03/02 05:01:34;;;;;;;1.80;1.50;;;;;;;20.57;31.30;102306.47;4974944;28;20046;-78
2023/03/02 05:04:01;;;;;;;2.03;1.48;;;;;;;20.53;31.21;102307.75;4969868;28;20707;-78
2023/03/02 05:06:28;;;;;;;1.45;1.35;;;;;;;20.54;31.46;102310.34;4970974;28;20108;-79
2023/03/02 05:08:58;;;;;;;1.73;1.48;;;;;;;20.55;31.33;102313.94;4979743;28;20050;-78
2023/03/02 05:11:25;;;;;;;1.85;1.60;;;;;;;20.55;31.11;102311.22;4971921;28;20153;-79
2023/03/02 05:13:55;;;;;;;2.25;1.83;;;;;;;20.54;31.01;102304.03;4970012;28;20038;-79
2023/03/02 05:16:24;;;;;;;2.45;1.83;;;;;;;20.45;31.29;102311.19;4976101;28;20046;-78
2023/03/02 05:18:50;;;;;;;2.70;1.60;;;;;;;20.46;31.61;102310.19;4978641;28;20133;-77
2023/03/02 05:21:17;;;;;;;1.63;1.50;;;;;;;20.40;31.07;102308.00;4970653;28;20046;-77
2023/03/02 05:23:44;;;;;;;1.80;1.67;;;;;;;20.49;31.22;102306.31;4970656;28;20081;-77
2023/03/02 05:26:11;;;;;;;2.08;1.60;;;;;;;20.54;31.07;102306.75;4984128;28;20046;-76
2023/03/02 05:28:38;;;;;;;2.03;1.77;;;;;;;20.60;30.97;102312.53;4971567;28;20031;-76
2023/03/02 05:31:06;;;;;;;1.77;1.50;;;;;;;20.61;30.80;102311.53;4969087;28;20042;-77
2023/03/02 05:33:32;;;;;;;2.45;1.70;;;;;;;20.55;31.17;102313.94;4968207;28;20141;-77
2023/03/02 05:36:00;;;;;;;2.08;1.80;;;;;;;20.51;31.16;102312.50;4968816;28;20440;-76
2023/03/02 05:38:26;;;;;;;2.22;1.67;;;;;;;20.42;31.10;102310.59;4968751;28;20119;-76
2023/03/02 05:40:53;;;;;;;1.83;1.63;;;;;;;20.35;31.46;102315.72;4969852;28;20492;-76
2023/03/02 05:43:20;;;;;;;1.85;1.52;;;;;;;20.26;31.50;102309.19;4969188;28;20039;-76
2023/03/02 05:45:47;;;;;;;2.00;1.80;;;;;;;20.25;31.12;102315.66;4963664;28;20552;-77
2023/03/02 05:48:14;;;;;;;2.70;2.13;;;;;;;20.28;31.41;102306.34;4961288;28;20051;-76
2023/03/02 05:50:41;;;;;;;1.75;1.60;;;;;;;20.32;31.23;102307.78;4957268;28;20047;-76
2023/03/02 05:53:08;;;;;;;2.63;1.80;;;;;;;20.33;31.29;102305.94;4969162;28;20471;-76
2023/03/02 05:55:36;;;;;;;1.92;1.73;;;;;;;20.30;31.50;102307.06;4970388;28;20054;-77
2023/03/02 05:58:05;;;;;;;2.17;1.80;;;;;;;20.41;31.29;102307.00;4969920;28;20069;-76
2023/03/02 06:00:32;;;;;;;2.30;1.90;;;;;;;20.52;30.91;102300.56;4972122;28;20482;-77
2023/03/02 06:02:59;;;;;;;2.38;1.83;;;;;;;20.53;30.84;102303.16;4969208;28;20043;-76
2023/03/02 06:05:25;;;;;;;2.55;1.98;;;;;;;20.54;31.20;102304.91;4955669;28;20096;-77
2023/03/02 06:07:52;;;;;;;2.45;1.88;;;;;;;20.54;30.68;102304.03;4970068;28;20050;-76
2023/03/02 06:10:19;;;;;;;2.65;1.80;;;;;;;20.38;31.07;102301.78;4969325;28;20389;-76
2023/03/02 06:12:46;;;;;;;2.35;1.88;;;;;;;20.30;30.86;102307.94;4967909;28;20058;-76
2023/03/02 06:15:13;;;;;;;2.45;2.10;;;;;;;20.28;31.30;102299.03;4968303;28;20046;-76
2023/03/02 06:17:40;;;;;;;3.47;2.30;;;;;;;20.23;30.96;102301.28;4968517;28;20050;-76
2023/03/02 06:20:09;;;;;;;2.17;1.92;;;;;;;20.18;31.19;102303.56;4968423;28;20047;-76
2023/03/02 06:22:40;;;;;;;2.60;2.40;;;;;;;20.15;31.46;102303.84;4967456;28;20057;-76
2023/03/02 06:25:09;;;;;;;2.38;2.10;;;;;;;20.20;31.43;102307.03;4969316;28;20046;-76
2023/03/02 06:27:37;;;;;;;2.45;2.10;;;;;;;20.23;31.07;102312.22;4968033;28;20043;-76
2023/03/02 06:30:05;;;;;;;2.22;1.95;;;;;;;20.31;31.52;102308.78;4969553;28;20057;-75
2023/03/02 06:32:34;;;;;;;2.25;2.05;;;;;;;20.43;31.19;102313.19;4967819;28;20548;-75
2023/03/02 06:35:02;;;;;;;2.67;2.20;;;;;;;20.49;31.04;102307.19;4967592;28;20043;-75
2023/03/02 06:37:29;;;;;;;3.20;2.38;;;;;;;20.51;31.10;102315.22;4967968;28;20057;-76
2023/03/02 06:39:56;;;;;;;2.78;2.00;;;;;;;20.47;30.92;102317.38;4959481;28;20051;-75
2023/03/02 06:42:24;;;;;;;2.90;2.33;;;;;;;20.47;30.88;102313.78;4966758;28;20039;-74
2023/03/02 06:44:50;;;;;;;3.17;2.40;;;;;;;20.39;30.88;102321.75;4971176;28;20043;-75
2023/03/02 06:47:17;;;;;;;2.63;2.20;;;;;;;20.32;31.04;102326.91;4972193;28;20450;-75
2023/03/02 06:49:44;;;;;;;2.85;2.30;;;;;;;20.34;30.84;102318.56;4972616;28;20057;-75
2023/03/02 06:52:12;;;;;;;2.45;2.22;;;;;;;20.27;31.35;102321.84;4959456;28;20065;-75
2023/03/02 06:54:39;;;;;;;4.10;2.67;;;;;;;20.26;31.25;102328.31;4972132;28;20061;-75
2023/03/02 06:57:08;;;;;;;2.47;2.00;;;;;;;20.25;31.18;102322.97;4966953;28;20445;-75
2023/03/02 06:59:34;;;;;;;3.67;2.35;;;;;;;20.23;31.20;102323.13;4964548;28;20043;-76
2023/03/02 07:02:01;;;;;;;2.97;2.50;;;;;;;20.23;30.92;102320.38;4960841;28;20054;-75
2023/03/02 07:04:28;;;;;;;2.78;2.15;;;;;;;20.19;31.02;102328.97;4971779;28;20039;-75
2023/03/02 07:06:54;;;;;;;2.50;2.28;;;;;;;20.19;31.04;102321.66;4972641;28;20129;-75
2023/03/02 07:09:21;;;;;;;2.33;2.08;;;;;;;20.33;31.11;102331.34;4972682;28;20149;-75
2023/03/02 07:11:48;;;;;;;3.28;2.85;;;;;;;20.43;31.03;102332.28;4971976;28;20061;-75
2023/03/02 07:14:15;;;;;;;3.55;2.65;;;;;;;20.50;30.78;102335.34;4971825;28;20035;-76
2023/03/02 07:16:41;;;;;;;3.25;2.70;;;;;;;20.44;30.74;102335.88;4972088;28;20066;-75
2023/03/02 07:19:12;;;;;;;3.90;2.80;;;;;;;20.41;30.70;102337.03;4970538;28;20141;-75
2023/03/02 07:21:40;;;;;;;3.50;2.70;;;;;;;20.37;30.66;102334.66;4971994;28;20042;-75
2023/03/02 07:24:06;;;;;;;3.65;2.10;;;;;;;20.37;30.78;102329.22;4967324;28;20050;-74
2023/03/02 07:26:33;;;;;;;4.07;2.65;;;;;;;20.35;30.91;102334.81;4970631;28;20074;-74
2023/03/02 07:29:00;;;;;;;3.50;2.75;;;;;;;20.37;30.52;102334.66;4971624;28;20057;-73
2023/03/02 07:31:27;;;;;;;3.30;2.72;;;;;;;20.41;30.92;102333.44;4971685;28;20412;-73
2023/03/02 07:33:54;;;;;;;3.28;2.65;;;;;;;20.45;30.50;102326.69;4970348;28;20501;-73
2023/03/02 07:36:22;;;;;;;3.20;2.70;;;;;;;20.42;30.55;102337.88;4959337;28;20038;-74
2023/03/02 07:38:48;;;;;;;4.28;2.83;;;;;;;20.41;30.67;102339.75;4972036;28;20050;-73
2023/03/02 07:41:15;;;;;;;3.67;2.92;;;;;;;20.39;30.40;102333.56;4978189;28;20052;-74
2023/03/02 07:43:42;;;;;;;3.58;2.47;;;;;;;20.34;30.84;102340.41;4980947;28;20038;-76
2023/03/02 07:46:09;;;;;;;4.63;2.88;;;;;;;20.28;30.65;102331.75;4977802;28;20409;-77
2023/03/02 07:48:36;;;;;;;3.17;2.50;;;;;;;20.40;30.80;102340.75;4975887;28;20119;-77
2023/03/02 07:51:05;;;;;;;4.10;2.83;;;;;;;20.49;30.90;102337.19;4969933;28;20752;-76
2023/03/02 07:53:32;;;;;;;3.45;2.78;;;;;;;20.56;30.71;102338.38;4959125;28;20062;-77
2023/03/02 07:56:01;;;;;;;3.42;2.85;;;;;;;20.38;30.84;102336.41;4984411;28;20053;-77
2023/03/02 07:58:27;;;;;;;3.50;2.55;;;;;;;20.20;31.20;102331.56;4993262;28;20051;-76
2023/03/02 08:00:54;;;;;;;3.25;2.63;;;;;;;20.26;31.18;102339.22;4971632;28;20116;-75
2023/03/02 08:03:20;;;;;;;5.50;3.33;;;;;;;20.23;31.62;102338.63;4970975;28;20352;-76
2023/03/02 08:05:47;;;;;;;3.10;2.30;;;;;;;20.26;32.00;102336.50;4971238;28;20396;-76
2023/03/02 08:08:14;;;;;;;3.25;2.63;;;;;;;20.27;31.85;102343.66;4970507;28;20047;-76
2023/03/02 08:10:40;;;;;;;3.70;2.80;;;;;;;20.26;32.01;102341.09;4975331;28;20100;-77
2023/03/02 08:13:07;;;;;;;3.20;2.58;;;;;;;20.26;32.11;102336.50;4974207;28;20379;-78
2023/03/02 08:15:34;;;;;;;3.55;2.72;;;;;;;20.25;32.19;102337.50;4976040;28;20172;-76
2023/03/02 08:18:00;;;;;;;3.53;2.53;;;;;;;20.21;32.70;102351.53;4982708;28;20045;-73
2023/03/02 08:20:27;;;;;;;3.63;2.65;;;;;;;20.18;32.09;102336.31;4990624;28;20035;-76
2023/03/02 08:22:54;;;;;;;3.38;3.03;;;;;;;20.12;32.37;102345.03;4976540;28;20081;-73
2023/03/02 08:25:21;;;;;;;3.35;2.58;;;;;;;20.05;32.33;102338.34;4992536;28;20070;-74
2023/03/02 08:27:48;;;;;;;4.05;2.70;;;;;;;20.02;32.57;102338.63;4973819;28;20050;-74
2023/03/02 08:30:15;;;;;;;4.25;2.78;;;;;;;19.96;32.31;102337.28;4978266;28;20046;-71
2023/03/02 08:32:41;;;;;;;4.50;2.65;;;;;;;20.02;32.94;102341.34;4993502;28;20042;-71
2023/03/02 08:35:08;;;;;;;4.20;2.72;;;;;;;20.10;32.43;102341.56;4970828;28;20112;-71
2023/03/02 08:37:35;;;;;;;3.28;2.40;;;;;;;20.24;32.23;102343.09;4968343;28;20050;-71
2023/03/02 08:40:02;;;;;;;3.80;2.63;;;;;;;20.18;32.34;102344.50;4970178;28;20047;-71
2023/03/02 08:42:29;;;;;;;3.72;2.38;;;;;;;20.26;32.08;102341.09;4970673;28;20565;-71
2023/03/02 08:44:55;;;;;;;5.30;2.30;;;;;;;20.22;32.25;102337.75;4969693;28;20129;-71
2023/03/02 08:47:22;;;;;;;4.25;2.58;;;;;;;20.18;32.46;102330.84;4970495;28;20054;-69
2023/03/02 08:49:50;;;;;;;3.90;2.58;;;;;;;20.13;32.23;102338.56;4970644;28;20084;-69
2023/03/02 08:52:16;;;;;;;3.13;2.30;;;;;;;20.29;33.06;102328.03;4970330;28;20047;-73
2023/03/02 08:54:43;;;;;;;4.28;3.00;;;;;;;20.37;32.88;102329.22;4970806;28;20058;-72
2023/03/02 08:57:11;;;;;;;4.30;2.45;;;;;;;20.39;32.58;102329.94;4971403;28;20042;-73
2023/03/02 08:59:37;;;;;;;3.83;2.28;;;;;;;20.38;32.63;102320.03;4965701;28;20058;-70
2023/03/02 09:02:04;;;;;;;7.70;3.95;;;;;;;20.52;34.12;102320.53;4968868;28;20051;-71
2023/03/02 09:04:31;;;;;;;8.95;4.40;;;;;;;20.60;34.17;102328.91;4969422;28;20398;-72
2023/03/02 09:06:57;;;;;;;9.23;4.03;;;;;;;20.67;34.83;102331.09;4969110;28;20078;-71
2023/03/02 09:09:24;;;;;;;7.28;4.47;;;;;;;20.75;34.57;102331.25;4960609;28;20047;-71
2023/03/02 09:11:51;;;;;;;8.07;4.40;;;;;;;20.74;34.66;102329.53;4970371;28;20051;-72
2023/03/02 09:14:17;;;;;;;7.55;4.88;;;;;;;20.62;34.40;102329.63;4969778;28;20131;-77
2023/03/02 09:16:45;;;;;;;6.63;3.65;;;;;;;20.58;33.74;102328.19;4960585;28;20050;-73
2023/03/02 09:19:12;;;;;;;7.38;3.67;;;;;;;20.59;33.73;102331.78;4980707;28;20045;-73
2023/03/02 09:21:39;;;;;;;6.55;3.17;;;;;;;20.41;33.67;102323.38;4971355;28;20134;-73
2023/03/02 09:24:06;;;;;;;4.60;3.00;;;;;;;20.35;33.98;102331.22;4981923;28;20041;-73
2023/03/02 09:26:33;;;;;;;5.70;3.53;;;;;;;20.36;33.52;102322.88;4966795;28;20149;-73
2023/03/02 09:29:00;;;;;;;4.68;3.08;;;;;;;20.34;33.54;102329.47;4971391;28;20043;-72
2023/03/02 09:31:27;;;;;;;6.28;3.08;;;;;;;20.31;33.46;102325.16;4973373;28;20058;-72
2023/03/02 09:33:56;;;;;;;4.60;2.78;;;;;;;20.35;33.83;102331.22;4975043;28;20042;-73
2023/03/02 09:36:24;;;;;;;4.53;2.90;;;;;;;20.38;33.45;102328.22;4954048;28;20104;-73
2023/03/02 09:38:52;;;;;;;5.32;2.70;;;;;;;20.37;33.50;102324.63;4981849;28;20134;-76
2023/03/02 09:41:18;;;;;;;6.63;3.10;;;;;;;20.37;33.62;102323.75;4965336;28;20085;-73
2023/03/02 09:44:20;;;;;;;6.00;2.97;;;;;;;20.37;33.87;102327.34;4968850;28;20129;-73
2023/03/02 09:47:03;;;;;;;10.15;2.80;;;;;;;20.41;33.36;102322.50;4971399;28;20058;-73
2023/03/02 09:49:42;;;;;;;5.63;3.13;;;;;;;20.38;33.44;102328.22;4961527;28;20053;-73
2023/03/02 09:52:28;;;;;;;6.30;2.65;;;;;;;20.41;33.37;102323.38;4971722;28;20145;-72
2023/03/02 09:54:58;;;;;;;3.88;2.55;;;;;;;20.49;33.24;102323.56;4975179;28;20485;-74
2023/03/02 09:57:31;;;;;;;3.65;2.50;;;;;;;20.51;33.37;102318.81;4967100;28;20125;-73
2023/03/02 10:00:06;;;;;;;4.22;2.75;;;;;;;20.51;33.17;102320.69;4969430;28;20055;-73
2023/03/02 10:02:51;;;;;;;4.93;2.70;;;;;;;20.61;33.03;102324.31;4965371;28;20051;-73
2023/03/02 10:05:30;;;;;;;3.47;2.20;;;;;;;20.70;33.09;102326.22;4967128;28;20112;-73
2023/03/02 10:07:57;;;;;;;9.35;3.40;;;;;;;20.88;33.48;102324.56;4969488;28;20046;-74
2023/03/02 10:10:45;;;;;;;3.20;2.10;;;;;;;21.08;33.06;102320.00;4969322;28;20047;-73
2023/03/02 10:13:14;;;;;;;3.95;2.45;;;;;;;21.24;32.64;102314.88;4979808;28;20058;-73
2023/03/02 10:15:47;;;;;;;3.47;2.45;;;;;;;21.42;32.52;102325.94;5020399;28;20376;-73
2023/03/02 10:18:18;;;;;;;8.15;2.90;;;;;;;21.50;32.42;102317.03;4986980;28;20557;-73
2023/03/02 10:21:06;;;;;;;3.75;2.55;;;;;;;21.55;32.14;102318.34;4971825;28;20062;-73
2023/03/02 10:23:58;;;;;;;4.07;2.45;;;;;;;21.64;32.04;102315.75;4973037;28;20162;-73
2023/03/02 10:26:37;;;;;;;3.33;2.03;;;;;;;21.71;31.83;102311.44;4981025;28;20112;-73
2023/03/02 10:29:26;;;;;;;4.25;2.70;;;;;;;21.77;32.03;102306.25;4971385;28;20090;-73
2023/03/02 10:32:00;;;;;;;4.63;2.10;;;;;;;21.84;31.82;102303.78;4982057;28;20051;-73
2023/03/02 10:34:29;;;;;;;4.35;2.15;;;;;;;21.88;31.45;102314.28;4972389;28;20777;-74
2023/03/02 10:36:57;;;;;;;3.80;2.30;;;;;;;21.94;31.41;102309.22;4972569;28;20043;-74
2023/03/02 10:39:23;;;;;;;3.38;2.30;;;;;;;21.98;31.13;102303.31;4972599;28;20565;-74
2023/03/02 10:42:01;;;;;;;3.38;2.20;;;;;;;21.92;30.90;102303.91;4972201;28;20042;-73
2023/03/02 10:44:38;;;;;;;6.70;2.50;;;;;;;21.87;30.09;102300.75;4971606;28;20043;-73
2023/03/02 10:47:09;;;;;;;4.00;2.30;;;;;;;21.93;30.46;102310.22;4960251;28;20047;-73
2023/03/02 10:49:41;;;;;;;6.07;2.05;;;;;;;21.84;29.84;102309.25;4972768;28;20043;-74
2023/03/02 10:52:19;;;;;;;3.35;2.28;;;;;;;21.83;30.50;102300.19;4972368;28;20046;-74
2023/03/02 10:54:47;;;;;;;4.78;2.45;;;;;;;21.86;30.29;102291.69;4971944;28;20074;-75
2023/03/02 10:57:28;;;;;;;2.70;2.08;;;;;;;21.98;30.32;102291.50;4969504;28;20042;-74
2023/03/02 11:00:01;;;;;;;4.15;3.10;;;;;;;21.88;29.99;102299.75;5033294;28;20376;-74
2023/03/02 11:02:30;;;;;;;4.22;2.80;;;;;;;22.06;30.08;102305.34;4972018;28;20046;-75
2023/03/02 11:05:18;;;;;;;3.67;2.78;;;;;;;22.09;30.11;102296.84;4979354;28;20113;-73
2023/03/02 11:08:07;;;;;;;4.57;2.30;;;;;;;22.30;29.98;102289.28;4978171;28;20047;-75
2023/03/02 11:10:39;;;;;;;3.38;2.60;;;;;;;22.44;30.20;102298.88;4978745;28;20513;-74
2023/03/02 11:13:19;;;;;;;2.88;2.20;;;;;;;22.56;30.26;102294.94;4982300;28;20081;-74
2023/03/02 11:15:48;;;;;;;3.92;2.47;;;;;;;22.70;29.83;102290.81;4978908;28;20524;-74
2023/03/02 11:18:30;;;;;;;2.88;2.30;;;;;;;22.79;29.63;102289.91;4972222;28;20039;-74
2023/03/02 11:21:07;;;;;;;3.53;2.28;;;;;;;22.85;29.55;102289.31;4975651;28;20050;-74
2023/03/02 11:23:50;;;;;;;5.43;2.28;;;;;;;22.91;29.68;102282.34;4971518;28;20043;-74
2023/03/02 11:26:23;;;;;;;7.32;2.63;;;;;;;23.03;29.61;102278.38;4971872;28;20122;-75
2023/03/02 11:29:19;;;;;;;3.08;2.45;;;;;;;23.16;29.77;102275.28;4972021;28;20047;-74
2023/03/02 11:31:55;;;;;;;3.83;2.03;;;;;;;23.26;29.53;102276.06;4997776;28;20055;-74
2023/03/02 11:34:34;;;;;;;5.22;2.08;;;;;;;23.32;29.30;102276.28;4980968;28;20082;-73
2023/03/02 11:37:19;;;;;;;3.38;2.13;;;;;;;23.36;29.44;102269.47;4965770;28;20055;-74